Flight Track Log - Related Links

Times and Time Zones

All times are in EST time to prevent confusion due to time zone crossing. See the G52667 flight status page for this flight to view local times or setup timezone preferences in your user account.

Time Position Orientation Groundspeed Altitude Reporting Facility
EST Latitude Longitude Course Direction KTS MPH feet Rate Location/Type
Mon 08:22:00 PM 33.9004 118.9404 175° South  Level Estimated
Mon 08:23:00 PM 33.8045 118.9498 175° South  Level Estimated
Mon 08:24:00 PM 33.7182 118.9583 175° South  Level Estimated
Mon 08:25:00 PM 33.6319 118.9668 175° South  Level Estimated
Mon 08:26:00 PM 33.5455 118.9753 175° South  Level Estimated
Mon 08:27:00 PM 33.4592 118.9837 175° South  Level Estimated
Mon 08:28:00 PM 33.3729 118.9921 175° South  Level Estimated
Mon 08:29:00 PM 33.2866 119.0005 175° South  Level Estimated
Mon 08:30:00 PM 33.2003 119.0089 175° South  Level Estimated
Mon 08:31:00 PM 33.1139 119.0173 175° South  Level Estimated
Mon 08:32:00 PM 33.0276 119.0256 175° South  Level Estimated
Mon 08:33:00 PM 32.9413 119.0340 175° South  Level Estimated
Mon 08:34:00 PM 32.8550 119.0423 175° South  Level Estimated
Mon 08:35:00 PM 32.7687 119.0506 175° South  Level Estimated
Mon 08:36:00 PM 32.6823 119.0589 175° South  Level Estimated
Mon 08:37:00 PM 32.5960 119.0672 175° South  Level Estimated
Mon 08:38:00 PM 32.5097 119.0754 175° South  Level Estimated
Mon 08:39:00 PM 32.4234 119.0837 175° South  Level Estimated
Mon 08:40:00 PM 32.3371 119.0919 175° South  Level Estimated
Mon 08:41:00 PM 32.2507 119.1001 175° South  Level Estimated
Mon 08:42:00 PM 32.1644 119.1083 175° South  Level Estimated
Mon 08:43:00 PM 32.0781 119.1165 175° South  Level Estimated
Mon 08:44:00 PM 31.9918 119.1246 175° South  Level Estimated
Mon 08:45:00 PM 31.9055 119.1328 175° South  Level Estimated
Mon 08:46:00 PM 31.8191 119.1409 175° South  Level Estimated
Mon 08:47:00 PM 31.7328 119.1490 175° South  Level Estimated
Mon 08:48:00 PM 31.6465 119.1571 175° South  Level Estimated
Mon 08:49:00 PM 31.5601 119.1652 175° South  Level Estimated
Mon 08:50:00 PM 31.4738 119.1733 175° South  Level Estimated
Mon 08:51:00 PM 31.3875 119.1814 175° South  Level Estimated
Mon 08:52:00 PM 31.3011 119.1894 175° South  Level Estimated
Mon 08:53:00 PM 31.2148 119.1974 175° South  Level Estimated
Mon 08:54:00 PM 31.1285 119.2054 175° South  Level Estimated
Mon 08:55:00 PM 31.0422 119.2134 175° South  Level Estimated
Mon 08:56:00 PM 30.9558 119.2214 175° South  Level Estimated
Mon 08:57:00 PM 30.8695 119.2294 175° South  Level Estimated
Mon 08:58:00 PM 30.7832 119.2374 175° South  Level Estimated
Mon 08:59:00 PM 30.6968 119.2453 175° South  Level Estimated
Mon 09:00:00 PM 30.6105 119.2532 175° South  Level Estimated
Mon 09:01:00 PM 30.5242 119.2611 175° South  Level Estimated
Mon 09:02:00 PM 30.4379 119.2690 175° South  Level Estimated
Mon 09:03:00 PM 30.3515 119.2769 175° South  Level Estimated
Mon 09:04:00 PM 30.2652 119.2848 175° South  Level Estimated
Mon 09:05:00 PM 30.1789 119.2927 176° South  Level Estimated
Mon 09:06:00 PM 30.0925 119.3005 176° South  Level Estimated
Mon 09:07:00 PM 30.0062 119.3083 176° South  Level Estimated
Mon 09:08:00 PM 29.9198 119.3161 176° South  Level Estimated
Mon 09:09:00 PM 29.8335 119.3240 176° South  Level Estimated
Mon 09:10:00 PM 29.7472 119.3317 176° South  Level Estimated
Mon 09:11:00 PM 29.6608 119.3395 176° South  Level Estimated
Mon 09:12:00 PM 29.5745 119.3473 176° South  Level Estimated
Mon 09:13:00 PM 29.4881 119.3550 176° South  Level Estimated
Mon 09:14:00 PM 29.4018 119.3628 176° South  Level Estimated
Mon 09:15:00 PM 29.3155 119.3705 176° South  Level Estimated
Mon 09:16:00 PM 29.2291 119.3782 176° South  Level Estimated
Mon 09:17:00 PM 29.1428 119.3859 176° South  Level Estimated
Mon 09:18:00 PM 29.0564 119.3936 176° South  Level Estimated
Mon 09:19:00 PM 28.9701 119.4013 176° South  Level Estimated
Mon 09:20:00 PM 28.8838 119.4089 176° South  Level Estimated
Mon 09:21:00 PM 28.7974 119.4166 176° South  Level Estimated
Mon 09:22:00 PM 28.7111 119.4242 176° South  Level Estimated
Mon 09:23:00 PM 28.6247 119.4318 176° South  Level Estimated
Mon 09:24:00 PM 28.5384 119.4394 176° South  Level Estimated
Mon 09:25:00 PM 28.4521 119.4470 176° South  Level Estimated
Mon 09:26:00 PM 28.3657 119.4546 176° South  Level Estimated
Mon 09:27:00 PM 28.2794 119.4622 176° South  Level Estimated
Mon 09:28:00 PM 28.1930 119.4697 176° South  Level Estimated
Mon 09:29:00 PM 28.1067 119.4773 176° South  Level Estimated
Mon 09:30:00 PM 28.0203 119.4848 176° South  Level Estimated
Mon 09:31:00 PM 27.9340 119.4923 176° South  Level Estimated
Mon 09:32:00 PM 27.8476 119.4999 176° South  Level Estimated
Mon 09:33:00 PM 27.7613 119.5074 176° South  Level Estimated
Mon 09:34:00 PM 27.6749 119.5148 176° South  Level Estimated
Mon 09:35:00 PM 27.5886 119.5223 176° South  Level Estimated
Mon 09:36:00 PM 27.5022 119.5298 176° South  Level Estimated
Mon 09:37:00 PM 27.4159 119.5372 176° South  Level Estimated
Mon 09:38:00 PM 27.3295 119.5447 176° South  Level Estimated
Mon 09:39:00 PM 27.2432 119.5521 176° South  Level Estimated
Mon 09:40:00 PM 27.1568 119.5595 176° South  Level Estimated
Mon 09:41:00 PM 27.0705 119.5669 176° South  Level Estimated
Mon 09:42:00 PM 26.9841 119.5743 176° South  Level Estimated
Mon 09:43:00 PM 26.8978 119.5817 176° South  Level Estimated
Mon 09:44:00 PM 26.8114 119.5891 176° South  Level Estimated
Mon 09:45:00 PM 26.7251 119.5964 176° South  Level Estimated
Mon 09:46:00 PM 26.6387 119.6038 176° South  Level Estimated
Mon 09:47:00 PM 26.5524 119.6111 176° South  Level Estimated
Mon 09:48:00 PM 26.4660 119.6185 176° South  Level Estimated
Mon 09:49:00 PM 26.3797 119.6258 176° South  Level Estimated
Mon 09:50:00 PM 26.2933 119.6331 176° South  Level Estimated
Mon 09:51:00 PM 26.2070 119.6404 176° South  Level Estimated
Mon 09:52:00 PM 26.1206 119.6477 176° South  Level Estimated
Mon 09:53:00 PM 26.0343 119.6549 176° South  Level Estimated
Mon 09:54:00 PM 25.9479 119.6622 176° South  Level Estimated
Mon 09:55:00 PM 25.9351 119.6633 176° South  Level Estimated
Mon 09:56:00 PM 25.9351 119.6633 24° Northeast  Level Estimated
Mon 09:57:00 PM 25.9351 119.6633 24° Northeast  Level Estimated
Mon 09:58:00 PM 25.9351 119.6633 24° Northeast  Level Estimated
Mon 09:59:00 PM 25.9351 119.6633 24° Northeast  Level Estimated
Mon 10:00:00 PM 25.9351 119.6633 24° Northeast  Level Estimated
Mon 10:01:00 PM 25.9351 119.6633 24° Northeast  Level Estimated
Mon 10:02:00 PM 25.9351 119.6633 24° Northeast  Level Estimated
Mon 10:03:00 PM 25.9351 119.6633 24° Northeast  Level Estimated
Mon 10:04:00 PM 25.9351 119.6633 24° Northeast  Level Estimated
Mon 10:05:00 PM 25.9351 119.6633 24° Northeast  Level Estimated
Mon 10:06:00 PM 25.9351 119.6633 24° Northeast  Level Estimated
Mon 10:07:00 PM 25.9351 119.6633 24° Northeast  Level Estimated
Mon 10:08:00 PM 25.9351 119.6633 24° Northeast  Level Estimated

Login

Don't have an account? Register now (free) for customized features, flight alerts, and more!